< Typhoon 195120 1951 Season Typhoon 195201 >
Typhoon 195121 (BABS)
General InformationTrack Information on Google Maps || Disaster Info.ResourceGoogle EarthGE AnimationAtom FeedGeoJSON
Detalied Best Track (Time Zone = UTC)
Year Month Day Hour Lat. Long. Pressure (hPa) Wind (kt) Class Image Chart
1951 12 10 00 9.0 143.0 1006 0 2 -- Chart
1951 12 10 06 9.0 142.0 1004 0 2 -- Chart
1951 12 10 12 9.0 141.0 1004 0 2 -- Chart
1951 12 10 18 9.1 139.9 1000 0 2 -- Chart
1951 12 11 00 9.2 138.9 990 0 2 -- Chart
1951 12 11 06 9.3 137.8 990 0 9 -- Chart
1951 12 11 12 9.8 136.6 990 0 9 -- Chart
1951 12 11 18 10.6 135.4 990 0 9 -- Chart
1951 12 12 00 11.4 134.2 990 0 9 -- Chart
1951 12 12 06 12.2 133.0 990 0 9 -- Chart
1951 12 12 12 12.7 132.5 990 0 9 -- Chart
1951 12 12 18 13.3 132.0 985 0 9 -- Chart
1951 12 13 00 13.8 131.4 985 0 9 -- Chart
1951 12 13 06 14.4 131.0 980 0 9 -- Chart
1951 12 13 12 14.9 130.7 980 0 9 -- Chart
1951 12 13 18 15.4 130.7 980 0 9 -- Chart
1951 12 14 00 16.0 130.7 980 0 9 -- Chart
1951 12 14 06 17.6 132.3 980 0 9 -- Chart
1951 12 14 12 18.2 133.5 980 0 9 -- Chart
1951 12 14 18 18.3 135.0 980 0 9 -- Chart
1951 12 15 00 18.7 136.5 980 0 9 -- Chart
1951 12 15 06 19.9 139.1 980 0 9 -- Chart
1951 12 15 12 21.4 142.0 980 0 9 -- Chart
1951 12 15 18 23.0 145.0 986 0 9 -- Chart
1951 12 16 00 25.0 150.0 990 0 9 -- Chart
1951 12 16 06 26.6 154.0 990 0 9 -- Chart
Japan Meteorological Agency Best Track Data | Correction Date : 1989-06-01
< Typhoon 195120 1951 Season Typhoon 195201 >

Help